Chirk, United Kingdom
Current Conditions -  °F | °C
As of 6:50 AM on Friday 31 Oct 2014 (Local Time) from EGNR Reporting Station
Scattered Clouds Scattered Clouds  
Wind Chill: 61°   Ceiling: Unl
Heat Index: 61°   Visibility: 4mi
Dew Point: 57°   Wind: 12mph
Humidity: 88%   Direction: 150°SSE
Pressure: 29.88"   Gusts: NA
Location:  52.94°N, 3.06°W
Report Text: EGNR 310650Z 15010KT 7000 FEW018 SCT030 16/14 Q1012
Loading
Personal Weather Stations






























Interactive Weather Map
Tropical Storm Tracking
New forecast layout! Learn more

10-Day Weather Forecast

Advertisements
Track Severe Weather on mobile